sensor_id;sensor_type;location;lat;lon;timestamp;P1;durP1;ratioP1;P2;durP2;ratioP2
32812;SDS011;19162;48.254;11.454;2023-12-29T00:02:33;1.90;;;1.80;;
32812;SDS011;19162;48.254;11.454;2023-12-29T00:05:33;2.22;;;2.03;;
32812;SDS011;19162;48.254;11.454;2023-12-29T00:08:33;1.85;;;1.75;;
32812;SDS011;19162;48.254;11.454;2023-12-29T00:11:34;2.38;;;2.17;;
32812;SDS011;19162;48.254;11.454;2023-12-29T00:14:36;1.88;;;1.77;;
32812;SDS011;19162;48.254;11.454;2023-12-29T00:17:36;1.80;;;1.70;;
32812;SDS011;19162;48.254;11.454;2023-12-29T00:20:37;2.15;;;1.50;;
32812;SDS011;19162;48.254;11.454;2023-12-29T00:23:37;2.47;;;1.70;;
32812;SDS011;19162;48.254;11.454;2023-12-29T00:26:37;2.20;;;2.00;;
32812;SDS011;19162;48.254;11.454;2023-12-29T00:29:38;3.47;;;1.70;;
32812;SDS011;19162;48.254;11.454;2023-12-29T00:32:38;1.92;;;1.77;;
32812;SDS011;19162;48.254;11.454;2023-12-29T00:35:38;1.55;;;1.45;;
32812;SDS011;19162;48.254;11.454;2023-12-29T00:38:41;1.63;;;1.52;;
32812;SDS011;19162;48.254;11.454;2023-12-29T00:41:42;1.50;;;1.40;;
32812;SDS011;19162;48.254;11.454;2023-12-29T00:44:42;1.48;;;1.38;;
32812;SDS011;19162;48.254;11.454;2023-12-29T00:47:42;1.40;;;1.30;;
32812;SDS011;19162;48.254;11.454;2023-12-29T00:50:42;2.53;;;1.58;;
32812;SDS011;19162;48.254;11.454;2023-12-29T00:53:42;1.60;;;1.50;;
32812;SDS011;19162;48.254;11.454;2023-12-29T00:56:49;1.80;;;1.48;;
32812;SDS011;19162;48.254;11.454;2023-12-29T00:59:50;1.67;;;1.40;;
32812;SDS011;19162;48.254;11.454;2023-12-29T01:02:50;2.00;;;1.63;;
32812;SDS011;19162;48.254;11.454;2023-12-29T01:05:50;1.15;;;1.15;;
32812;SDS011;19162;48.254;11.454;2023-12-29T01:08:50;1.60;;;1.50;;
32812;SDS011;19162;48.254;11.454;2023-12-29T01:11:50;2.30;;;1.67;;
32812;SDS011;19162;48.254;11.454;2023-12-29T01:14:51;2.42;;;1.65;;
32812;SDS011;19162;48.254;11.454;2023-12-29T01:17:51;2.53;;;1.70;;
32812;SDS011;19162;48.254;11.454;2023-12-29T01:20:51;1.55;;;1.45;;
32812;SDS011;19162;48.254;11.454;2023-12-29T01:23:51;1.77;;;1.50;;
32812;SDS011;19162;48.254;11.454;2023-12-29T01:26:51;1.50;;;1.40;;
32812;SDS011;19162;48.254;11.454;2023-12-29T01:29:51;1.65;;;1.55;;
32812;SDS011;19162;48.254;11.454;2023-12-29T01:32:52;1.95;;;1.85;;
32812;SDS011;19162;48.254;11.454;2023-12-29T01:35:52;1.85;;;1.75;;
32812;SDS011;19162;48.254;11.454;2023-12-29T01:38:53;2.10;;;1.90;;
32812;SDS011;19162;48.254;11.454;2023-12-29T01:41:55;2.67;;;1.58;;
32812;SDS011;19162;48.254;11.454;2023-12-29T01:44:55;3.88;;;1.80;;
32812;SDS011;19162;48.254;11.454;2023-12-29T01:47:56;2.20;;;1.73;;
32812;SDS011;19162;48.254;11.454;2023-12-29T01:50:56;2.42;;;1.88;;
32812;SDS011;19162;48.254;11.454;2023-12-29T01:53:57;1.48;;;1.38;;
32812;SDS011;19162;48.254;11.454;2023-12-29T01:56:58;1.70;;;1.60;;
32812;SDS011;19162;48.254;11.454;2023-12-29T01:59:59;1.80;;;1.70;;
32812;SDS011;19162;48.254;11.454;2023-12-29T02:02:59;1.67;;;1.58;;
32812;SDS011;19162;48.254;11.454;2023-12-29T02:05:59;1.47;;;1.30;;
32812;SDS011;19162;48.254;11.454;2023-12-29T02:09:01;1.63;;;1.52;;
32812;SDS011;19162;48.254;11.454;2023-12-29T02:12:01;2.03;;;1.60;;
32812;SDS011;19162;48.254;11.454;2023-12-29T02:15:02;2.17;;;1.90;;
32812;SDS011;19162;48.254;11.454;2023-12-29T02:18:03;1.77;;;1.42;;
32812;SDS011;19162;48.254;11.454;2023-12-29T02:21:06;1.88;;;1.77;;
32812;SDS011;19162;48.254;11.454;2023-12-29T02:24:06;2.10;;;1.90;;
32812;SDS011;19162;48.254;11.454;2023-12-29T02:30:33;2.05;;;1.95;;
32812;SDS011;19162;48.254;11.454;2023-12-29T02:33:38;1.73;;;1.63;;
32812;SDS011;19162;48.254;11.454;2023-12-29T02:36:39;3.13;;;2.38;;
32812;SDS011;19162;48.254;11.454;2023-12-29T02:39:42;2.22;;;2.03;;
32812;SDS011;19162;48.254;11.454;2023-12-29T02:42:46;2.30;;;2.10;;
32812;SDS011;19162;48.254;11.454;2023-12-29T02:45:47;2.42;;;2.22;;
32812;SDS011;19162;48.254;11.454;2023-12-29T02:48:47;2.58;;;2.38;;
32812;SDS011;19162;48.254;11.454;2023-12-29T02:51:47;2.40;;;2.20;;
32812;SDS011;19162;48.254;11.454;2023-12-29T02:54:49;2.90;;;2.70;;
32812;SDS011;19162;48.254;11.454;2023-12-29T02:57:50;1.90;;;1.80;;
32812;SDS011;19162;48.254;11.454;2023-12-29T03:00:50;2.03;;;1.85;;
32812;SDS011;19162;48.254;11.454;2023-12-29T03:03:50;2.65;;;2.20;;
32812;SDS011;19162;48.254;11.454;2023-12-29T03:06:50;2.15;;;2.05;;
32812;SDS011;19162;48.254;11.454;2023-12-29T03:09:50;4.15;;;2.25;;
32812;SDS011;19162;48.254;11.454;2023-12-29T03:12:50;2.37;;;2.17;;
32812;SDS011;19162;48.254;11.454;2023-12-29T03:15:51;2.03;;;1.90;;
32812;SDS011;19162;48.254;11.454;2023-12-29T03:18:51;1.92;;;1.83;;
32812;SDS011;19162;48.254;11.454;2023-12-29T03:21:51;1.77;;;1.67;;
32812;SDS011;19162;48.254;11.454;2023-12-29T03:24:53;3.10;;;2.30;;
32812;SDS011;19162;48.254;11.454;2023-12-29T03:27:54;2.47;;;2.28;;
32812;SDS011;19162;48.254;11.454;2023-12-29T03:30:54;3.00;;;2.33;;
32812;SDS011;19162;48.254;11.454;2023-12-29T03:33:54;2.55;;;2.35;;
32812;SDS011;19162;48.254;11.454;2023-12-29T03:36:54;3.42;;;2.40;;
32812;SDS011;19162;48.254;11.454;2023-12-29T03:39:54;2.60;;;2.17;;
32812;SDS011;19162;48.254;11.454;2023-12-29T03:42:54;2.67;;;2.47;;
32812;SDS011;19162;48.254;11.454;2023-12-29T03:45:55;2.20;;;1.98;;
32812;SDS011;19162;48.254;11.454;2023-12-29T03:48:55;3.43;;;2.17;;
32812;SDS011;19162;48.254;11.454;2023-12-29T03:51:55;2.25;;;2.00;;
32812;SDS011;19162;48.254;11.454;2023-12-29T03:54:55;2.10;;;1.98;;
32812;SDS011;19162;48.254;11.454;2023-12-29T03:57:55;3.30;;;2.10;;
32812;SDS011;19162;48.254;11.454;2023-12-29T04:00:55;2.40;;;2.20;;
32812;SDS011;19162;48.254;11.454;2023-12-29T04:03:56;2.42;;;2.22;;
32812;SDS011;19162;48.254;11.454;2023-12-29T04:06:56;2.85;;;2.55;;
32812;SDS011;19162;48.254;11.454;2023-12-29T04:09:56;2.40;;;1.90;;
32812;SDS011;19162;48.254;11.454;2023-12-29T04:12:56;2.03;;;1.80;;
32812;SDS011;19162;48.254;11.454;2023-12-29T04:15:56;3.90;;;1.83;;
32812;SDS011;19162;48.254;11.454;2023-12-29T04:18:57;2.58;;;2.03;;
32812;SDS011;19162;48.254;11.454;2023-12-29T04:21:57;2.25;;;2.05;;
32812;SDS011;19162;48.254;11.454;2023-12-29T04:24:57;1.85;;;1.70;;
32812;SDS011;19162;48.254;11.454;2023-12-29T04:27:57;2.47;;;2.03;;
32812;SDS011;19162;48.254;11.454;2023-12-29T04:30:57;2.50;;;1.92;;
32812;SDS011;19162;48.254;11.454;2023-12-29T04:33:57;1.77;;;1.67;;
32812;SDS011;19162;48.254;11.454;2023-12-29T04:36:58;1.98;;;1.88;;
32812;SDS011;19162;48.254;11.454;2023-12-29T04:39:58;2.40;;;2.20;;
32812;SDS011;19162;48.254;11.454;2023-12-29T04:42:58;3.15;;;2.05;;
32812;SDS011;19162;48.254;11.454;2023-12-29T04:45:59;3.22;;;2.20;;
32812;SDS011;19162;48.254;11.454;2023-12-29T04:49:00;2.92;;;1.85;;
32812;SDS011;19162;48.254;11.454;2023-12-29T04:52:01;2.30;;;2.08;;
32812;SDS011;19162;48.254;11.454;2023-12-29T04:55:01;2.55;;;1.98;;
32812;SDS011;19162;48.254;11.454;2023-12-29T04:58:01;1.95;;;1.83;;
32812;SDS011;19162;48.254;11.454;2023-12-29T05:01:02;2.38;;;1.90;;
32812;SDS011;19162;48.254;11.454;2023-12-29T05:04:02;2.13;;;2.00;;
32812;SDS011;19162;48.254;11.454;2023-12-29T05:07:02;2.57;;;2.37;;
32812;SDS011;19162;48.254;11.454;2023-12-29T05:10:02;2.28;;;2.17;;
32812;SDS011;19162;48.254;11.454;2023-12-29T05:13:03;2.80;;;2.55;;
32812;SDS011;19162;48.254;11.454;2023-12-29T05:16:03;2.13;;;1.93;;
32812;SDS011;19162;48.254;11.454;2023-12-29T05:19:04;2.30;;;2.07;;
32812;SDS011;19162;48.254;11.454;2023-12-29T05:22:04;2.45;;;2.25;;
32812;SDS011;19162;48.254;11.454;2023-12-29T05:25:04;2.05;;;1.88;;
32812;SDS011;19162;48.254;11.454;2023-12-29T05:28:05;2.38;;;2.10;;
32812;SDS011;19162;48.254;11.454;2023-12-29T05:31:05;1.73;;;1.63;;
32812;SDS011;19162;48.254;11.454;2023-12-29T05:34:05;2.20;;;1.97;;
32812;SDS011;19162;48.254;11.454;2023-12-29T05:37:05;2.42;;;2.22;;
32812;SDS011;19162;48.254;11.454;2023-12-29T05:40:06;3.47;;;2.30;;
32812;SDS011;19162;48.254;11.454;2023-12-29T05:43:06;3.58;;;1.85;;
32812;SDS011;19162;48.254;11.454;2023-12-29T05:46:12;2.23;;;2.03;;
32812;SDS011;19162;48.254;11.454;2023-12-29T05:49:12;3.15;;;2.25;;
32812;SDS011;19162;48.254;11.454;2023-12-29T05:52:12;2.85;;;2.30;;
32812;SDS011;19162;48.254;11.454;2023-12-29T05:55:13;2.97;;;1.90;;
32812;SDS011;19162;48.254;11.454;2023-12-29T05:58:13;2.63;;;2.15;;
32812;SDS011;19162;48.254;11.454;2023-12-29T06:01:13;2.67;;;2.00;;
32812;SDS011;19162;48.254;11.454;2023-12-29T06:04:13;2.17;;;1.98;;
32812;SDS011;19162;48.254;11.454;2023-12-29T06:07:13;2.40;;;2.10;;
32812;SDS011;19162;48.254;11.454;2023-12-29T06:10:13;2.50;;;2.30;;
32812;SDS011;19162;48.254;11.454;2023-12-29T06:13:14;2.90;;;2.60;;
32812;SDS011;19162;48.254;11.454;2023-12-29T06:16:21;5.28;;;2.28;;
32812;SDS011;19162;48.254;11.454;2023-12-29T06:19:21;2.78;;;2.28;;
32812;SDS011;19162;48.254;11.454;2023-12-29T06:22:21;2.97;;;2.20;;
32812;SDS011;19162;48.254;11.454;2023-12-29T06:25:21;2.30;;;2.20;;
32812;SDS011;19162;48.254;11.454;2023-12-29T06:28:22;3.63;;;2.42;;
32812;SDS011;19162;48.254;11.454;2023-12-29T06:31:22;2.57;;;2.03;;
32812;SDS011;19162;48.254;11.454;2023-12-29T06:34:22;2.40;;;2.20;;
32812;SDS011;19162;48.254;11.454;2023-12-29T06:37:22;2.63;;;2.00;;
32812;SDS011;19162;48.254;11.454;2023-12-29T06:40:23;3.47;;;2.50;;
32812;SDS011;19162;48.254;11.454;2023-12-29T06:43:23;2.65;;;2.33;;
32812;SDS011;19162;48.254;11.454;2023-12-29T06:46:23;2.60;;;2.40;;
32812;SDS011;19162;48.254;11.454;2023-12-29T06:49:23;3.55;;;2.60;;
32812;SDS011;19162;48.254;11.454;2023-12-29T06:52:23;2.50;;;2.30;;
32812;SDS011;19162;48.254;11.454;2023-12-29T06:55:24;2.40;;;2.20;;
32812;SDS011;19162;48.254;11.454;2023-12-29T06:58:25;2.15;;;1.98;;
32812;SDS011;19162;48.254;11.454;2023-12-29T07:01:25;2.20;;;2.00;;
32812;SDS011;19162;48.254;11.454;2023-12-29T07:04:25;2.50;;;2.30;;
32812;SDS011;19162;48.254;11.454;2023-12-29T07:07:26;2.30;;;2.15;;
32812;SDS011;19162;48.254;11.454;2023-12-29T07:10:26;2.30;;;2.10;;
32812;SDS011;19162;48.254;11.454;2023-12-29T07:13:26;2.22;;;1.88;;
32812;SDS011;19162;48.254;11.454;2023-12-29T07:16:26;2.27;;;2.03;;
32812;SDS011;19162;48.254;11.454;2023-12-29T07:19:26;2.07;;;1.90;;
32812;SDS011;19162;48.254;11.454;2023-12-29T07:22:29;1.75;;;1.65;;
32812;SDS011;19162;48.254;11.454;2023-12-29T07:25:30;1.55;;;1.45;;
32812;SDS011;19162;48.254;11.454;2023-12-29T07:28:31;1.55;;;1.40;;
32812;SDS011;19162;48.254;11.454;2023-12-29T07:31:31;2.92;;;1.98;;
32812;SDS011;19162;48.254;11.454;2023-12-29T07:34:31;1.35;;;1.25;;
32812;SDS011;19162;48.254;11.454;2023-12-29T07:37:31;1.80;;;1.50;;
32812;SDS011;19162;48.254;11.454;2023-12-29T07:40:32;2.88;;;2.15;;
32812;SDS011;19162;48.254;11.454;2023-12-29T07:43:32;2.42;;;1.35;;
32812;SDS011;19162;48.254;11.454;2023-12-29T07:46:32;2.83;;;1.73;;
32812;SDS011;19162;48.254;11.454;2023-12-29T07:49:32;2.47;;;1.73;;
32812;SDS011;19162;48.254;11.454;2023-12-29T07:52:32;1.70;;;1.60;;
32812;SDS011;19162;48.254;11.454;2023-12-29T07:55:33;2.30;;;1.75;;
32812;SDS011;19162;48.254;11.454;2023-12-29T07:58:37;1.83;;;1.73;;
32812;SDS011;19162;48.254;11.454;2023-12-29T08:01:37;2.30;;;2.10;;
32812;SDS011;19162;48.254;11.454;2023-12-29T08:04:38;2.05;;;1.85;;
32812;SDS011;19162;48.254;11.454;2023-12-29T08:07:38;1.50;;;1.40;;
32812;SDS011;19162;48.254;11.454;2023-12-29T08:10:38;1.70;;;1.60;;
32812;SDS011;19162;48.254;11.454;2023-12-29T08:13:39;2.00;;;1.90;;
32812;SDS011;19162;48.254;11.454;2023-12-29T08:16:39;1.88;;;1.77;;
32812;SDS011;19162;48.254;11.454;2023-12-29T08:19:42;3.65;;;1.92;;
32812;SDS011;19162;48.254;11.454;2023-12-29T08:22:42;2.13;;;1.97;;
32812;SDS011;19162;48.254;11.454;2023-12-29T08:25:43;2.08;;;1.88;;
32812;SDS011;19162;48.254;11.454;2023-12-29T08:28:43;1.90;;;1.80;;
32812;SDS011;19162;48.254;11.454;2023-12-29T08:31:45;2.63;;;2.42;;
32812;SDS011;19162;48.254;11.454;2023-12-29T08:34:45;2.08;;;1.92;;
32812;SDS011;19162;48.254;11.454;2023-12-29T08:37:45;1.97;;;1.77;;
32812;SDS011;19162;48.254;11.454;2023-12-29T08:40:45;2.40;;;2.20;;
32812;SDS011;19162;48.254;11.454;2023-12-29T08:43:46;2.08;;;1.88;;
32812;SDS011;19162;48.254;11.454;2023-12-29T08:46:46;3.38;;;2.15;;
32812;SDS011;19162;48.254;11.454;2023-12-29T08:49:46;2.53;;;2.33;;
32812;SDS011;19162;48.254;11.454;2023-12-29T08:52:48;2.30;;;2.08;;
32812;SDS011;19162;48.254;11.454;2023-12-29T08:55:49;2.10;;;1.85;;
32812;SDS011;19162;48.254;11.454;2023-12-29T08:58:49;2.22;;;2.00;;
32812;SDS011;19162;48.254;11.454;2023-12-29T09:01:49;1.80;;;1.70;;
32812;SDS011;19162;48.254;11.454;2023-12-29T09:04:49;2.33;;;2.10;;
32812;SDS011;19162;48.254;11.454;2023-12-29T09:07:49;1.85;;;1.75;;
32812;SDS011;19162;48.254;11.454;2023-12-29T09:10:50;2.25;;;2.05;;
32812;SDS011;19162;48.254;11.454;2023-12-29T09:13:50;1.60;;;1.50;;
32812;SDS011;19162;48.254;11.454;2023-12-29T09:16:50;1.92;;;1.80;;
32812;SDS011;19162;48.254;11.454;2023-12-29T09:19:50;2.60;;;1.83;;
32812;SDS011;19162;48.254;11.454;2023-12-29T09:22:51;3.80;;;1.60;;
32812;SDS011;19162;48.254;11.454;2023-12-29T09:25:51;2.97;;;2.00;;
32812;SDS011;19162;48.254;11.454;2023-12-29T09:28:52;1.90;;;1.80;;
32812;SDS011;19162;48.254;11.454;2023-12-29T09:31:52;1.77;;;1.67;;
32812;SDS011;19162;48.254;11.454;2023-12-29T09:34:52;1.90;;;1.70;;
32812;SDS011;19162;48.254;11.454;2023-12-29T09:37:52;2.08;;;1.88;;
32812;SDS011;19162;48.254;11.454;2023-12-29T09:40:52;1.90;;;1.80;;
32812;SDS011;19162;48.254;11.454;2023-12-29T09:43:53;2.97;;;2.20;;
32812;SDS011;19162;48.254;11.454;2023-12-29T09:46:54;1.93;;;1.70;;
32812;SDS011;19162;48.254;11.454;2023-12-29T09:49:54;1.58;;;1.45;;
32812;SDS011;19162;48.254;11.454;2023-12-29T09:52:54;2.03;;;1.93;;
32812;SDS011;19162;48.254;11.454;2023-12-29T09:55:55;2.00;;;1.90;;
32812;SDS011;19162;48.254;11.454;2023-12-29T09:58:57;3.22;;;1.80;;
32812;SDS011;19162;48.254;11.454;2023-12-29T10:01:57;3.40;;;1.85;;
32812;SDS011;19162;48.254;11.454;2023-12-29T10:04:59;2.07;;;1.87;;
32812;SDS011;19162;48.254;11.454;2023-12-29T10:08:02;2.22;;;1.80;;
32812;SDS011;19162;48.254;11.454;2023-12-29T10:11:03;2.40;;;2.03;;
32812;SDS011;19162;48.254;11.454;2023-12-29T10:14:09;2.40;;;2.03;;
32812;SDS011;19162;48.254;11.454;2023-12-29T10:17:32;2.28;;;1.58;;
32812;SDS011;19162;48.254;11.454;2023-12-29T10:20:42;1.50;;;1.40;;
32812;SDS011;19162;48.254;11.454;2023-12-29T10:23:50;1.38;;;1.27;;
32812;SDS011;19162;48.254;11.454;2023-12-29T10:26:50;1.80;;;1.50;;
32812;SDS011;19162;48.254;11.454;2023-12-29T10:29:52;1.83;;;1.33;;
32812;SDS011;19162;48.254;11.454;2023-12-29T10:32:53;2.95;;;1.27;;
32812;SDS011;19162;48.254;11.454;2023-12-29T10:35:56;1.27;;;1.17;;
32812;SDS011;19162;48.254;11.454;2023-12-29T10:39:07;1.00;;;1.00;;
32812;SDS011;19162;48.254;11.454;2023-12-29T10:42:08;2.65;;;0.90;;
32812;SDS011;19162;48.254;11.454;2023-12-29T10:45:09;1.25;;;0.88;;
32812;SDS011;19162;48.254;11.454;2023-12-29T10:48:10;2.72;;;1.40;;
32812;SDS011;19162;48.254;11.454;2023-12-29T10:51:10;1.20;;;1.07;;
32812;SDS011;19162;48.254;11.454;2023-12-29T10:54:12;1.20;;;1.20;;
32812;SDS011;19162;48.254;11.454;2023-12-29T10:57:18;2.45;;;1.33;;
32812;SDS011;19162;48.254;11.454;2023-12-29T11:00:18;1.40;;;1.30;;
32812;SDS011;19162;48.254;11.454;2023-12-29T11:03:29;1.55;;;1.33;;
32812;SDS011;19162;48.254;11.454;2023-12-29T11:06:29;1.40;;;1.30;;
32812;SDS011;19162;48.254;11.454;2023-12-29T11:09:30;1.33;;;1.23;;
32812;SDS011;19162;48.254;11.454;2023-12-29T11:12:31;2.10;;;1.70;;
32812;SDS011;19162;48.254;11.454;2023-12-29T11:15:32;1.63;;;1.48;;
32812;SDS011;19162;48.254;11.454;2023-12-29T11:18:32;1.60;;;1.50;;
32812;SDS011;19162;48.254;11.454;2023-12-29T11:21:33;1.73;;;1.48;;
32812;SDS011;19162;48.254;11.454;2023-12-29T11:24:34;1.83;;;1.38;;
32812;SDS011;19162;48.254;11.454;2023-12-29T11:27:35;1.52;;;1.42;;
32812;SDS011;19162;48.254;11.454;2023-12-29T11:30:35;2.90;;;1.57;;
32812;SDS011;19162;48.254;11.454;2023-12-29T11:33:38;1.52;;;1.42;;
32812;SDS011;19162;48.254;11.454;2023-12-29T11:36:43;1.60;;;1.50;;
32812;SDS011;19162;48.254;11.454;2023-12-29T11:43:05;1.20;;;1.10;;
32812;SDS011;19162;48.254;11.454;2023-12-29T11:46:14;1.52;;;1.38;;
32812;SDS011;19162;48.254;11.454;2023-12-29T11:49:27;2.17;;;1.85;;
32812;SDS011;19162;48.254;11.454;2023-12-29T11:52:41;1.63;;;1.38;;
32812;SDS011;19162;48.254;11.454;2023-12-29T11:55:41;1.40;;;1.30;;
32812;SDS011;19162;48.254;11.454;2023-12-29T11:58:43;1.52;;;1.42;;
32812;SDS011;19162;48.254;11.454;2023-12-29T12:01:43;2.60;;;1.63;;
32812;SDS011;19162;48.254;11.454;2023-12-29T12:04:43;2.28;;;1.60;;
32812;SDS011;19162;48.254;11.454;2023-12-29T12:10:46;1.55;;;1.42;;
32812;SDS011;19162;48.254;11.454;2023-12-29T12:13:46;1.63;;;1.52;;
32812;SDS011;19162;48.254;11.454;2023-12-29T12:16:48;1.17;;;1.05;;
32812;SDS011;19162;48.254;11.454;2023-12-29T12:19:49;1.52;;;1.42;;
32812;SDS011;19162;48.254;11.454;2023-12-29T12:23:10;1.02;;;0.93;;
32812;SDS011;19162;48.254;11.454;2023-12-29T12:26:11;2.72;;;1.70;;
32812;SDS011;19162;48.254;11.454;2023-12-29T12:29:12;2.10;;;1.67;;
32812;SDS011;19162;48.254;11.454;2023-12-29T12:32:15;1.65;;;1.55;;
32812;SDS011;19162;48.254;11.454;2023-12-29T12:35:16;1.85;;;1.30;;
32812;SDS011;19162;48.254;11.454;2023-12-29T12:38:16;1.95;;;0.95;;
32812;SDS011;19162;48.254;11.454;2023-12-29T12:41:25;1.42;;;1.33;;
32812;SDS011;19162;48.254;11.454;2023-12-29T12:44:25;1.55;;;1.27;;
32812;SDS011;19162;48.254;11.454;2023-12-29T12:47:32;1.92;;;1.25;;
32812;SDS011;19162;48.254;11.454;2023-12-29T12:50:33;1.13;;;1.13;;
32812;SDS011;19162;48.254;11.454;2023-12-29T12:53:33;1.00;;;1.00;;
32812;SDS011;19162;48.254;11.454;2023-12-29T12:56:34;1.63;;;1.52;;
32812;SDS011;19162;48.254;11.454;2023-12-29T12:59:35;1.58;;;1.30;;
32812;SDS011;19162;48.254;11.454;2023-12-29T13:02:35;1.30;;;1.20;;
32812;SDS011;19162;48.254;11.454;2023-12-29T13:05:36;2.25;;;1.50;;
32812;SDS011;19162;48.254;11.454;2023-12-29T13:08:36;1.77;;;1.30;;
32812;SDS011;19162;48.254;11.454;2023-12-29T13:11:37;2.13;;;1.20;;
32812;SDS011;19162;48.254;11.454;2023-12-29T13:14:37;1.30;;;1.20;;
32812;SDS011;19162;48.254;11.454;2023-12-29T13:17:38;1.33;;;1.02;;
32812;SDS011;19162;48.254;11.454;2023-12-29T13:20:47;1.40;;;1.30;;
32812;SDS011;19162;48.254;11.454;2023-12-29T13:23:47;1.20;;;1.10;;
32812;SDS011;19162;48.254;11.454;2023-12-29T13:26:50;1.65;;;1.55;;
32812;SDS011;19162;48.254;11.454;2023-12-29T13:29:52;3.03;;;1.50;;
32812;SDS011;19162;48.254;11.454;2023-12-29T13:32:52;2.40;;;1.50;;
32812;SDS011;19162;48.254;11.454;2023-12-29T13:35:54;1.70;;;1.27;;
32812;SDS011;19162;48.254;11.454;2023-12-29T13:38:57;1.23;;;1.13;;
32812;SDS011;19162;48.254;11.454;2023-12-29T13:41:58;2.05;;;1.40;;
32812;SDS011;19162;48.254;11.454;2023-12-29T13:44:59;1.83;;;1.15;;
32812;SDS011;19162;48.254;11.454;2023-12-29T13:48:00;1.40;;;1.30;;
32812;SDS011;19162;48.254;11.454;2023-12-29T13:51:01;1.30;;;1.20;;
32812;SDS011;19162;48.254;11.454;2023-12-29T13:54:01;1.37;;;1.10;;
32812;SDS011;19162;48.254;11.454;2023-12-29T13:57:02;1.35;;;1.25;;
32812;SDS011;19162;48.254;11.454;2023-12-29T14:03:22;1.45;;;1.35;;
32812;SDS011;19162;48.254;11.454;2023-12-29T14:06:27;1.88;;;1.65;;
32812;SDS011;19162;48.254;11.454;2023-12-29T14:09:29;1.77;;;1.42;;
32812;SDS011;19162;48.254;11.454;2023-12-29T14:12:29;1.42;;;1.30;;
32812;SDS011;19162;48.254;11.454;2023-12-29T14:15:33;1.75;;;1.65;;
32812;SDS011;19162;48.254;11.454;2023-12-29T14:18:44;1.33;;;1.10;;
32812;SDS011;19162;48.254;11.454;2023-12-29T14:21:49;1.63;;;1.52;;
32812;SDS011;19162;48.254;11.454;2023-12-29T14:25:03;3.42;;;1.40;;
32812;SDS011;19162;48.254;11.454;2023-12-29T14:28:14;1.55;;;1.45;;
32812;SDS011;19162;48.254;11.454;2023-12-29T14:31:15;1.77;;;1.20;;
32812;SDS011;19162;48.254;11.454;2023-12-29T14:34:15;2.10;;;1.40;;
32812;SDS011;19162;48.254;11.454;2023-12-29T14:37:15;1.30;;;1.20;;
32812;SDS011;19162;48.254;11.454;2023-12-29T14:40:15;1.77;;;1.30;;
32812;SDS011;19162;48.254;11.454;2023-12-29T14:43:16;1.33;;;1.23;;
32812;SDS011;19162;48.254;11.454;2023-12-29T14:46:16;1.30;;;1.20;;
32812;SDS011;19162;48.254;11.454;2023-12-29T14:49:16;1.40;;;1.10;;
32812;SDS011;19162;48.254;11.454;2023-12-29T14:52:16;1.50;;;1.40;;
32812;SDS011;19162;48.254;11.454;2023-12-29T14:55:16;2.23;;;2.03;;
32812;SDS011;19162;48.254;11.454;2023-12-29T14:58:17;2.03;;;1.58;;
32812;SDS011;19162;48.254;11.454;2023-12-29T15:01:17;1.58;;;1.30;;
32812;SDS011;19162;48.254;11.454;2023-12-29T15:04:17;2.65;;;1.75;;
32812;SDS011;19162;48.254;11.454;2023-12-29T15:07:17;1.70;;;1.60;;
32812;SDS011;19162;48.254;11.454;2023-12-29T15:10:18;1.58;;;1.48;;
32812;SDS011;19162;48.254;11.454;2023-12-29T15:13:18;1.52;;;1.30;;
32812;SDS011;19162;48.254;11.454;2023-12-29T15:16:18;2.03;;;1.67;;
32812;SDS011;19162;48.254;11.454;2023-12-29T15:19:19;1.08;;;1.08;;
32812;SDS011;19162;48.254;11.454;2023-12-29T15:22:19;1.60;;;1.50;;
32812;SDS011;19162;48.254;11.454;2023-12-29T15:25:19;1.30;;;1.20;;
32812;SDS011;19162;48.254;11.454;2023-12-29T15:28:19;3.90;;;1.40;;
32812;SDS011;19162;48.254;11.454;2023-12-29T15:31:20;2.05;;;1.50;;
32812;SDS011;19162;48.254;11.454;2023-12-29T15:34:21;1.50;;;1.40;;
32812;SDS011;19162;48.254;11.454;2023-12-29T15:37:21;1.55;;;1.45;;
32812;SDS011;19162;48.254;11.454;2023-12-29T15:40:21;2.10;;;1.77;;
32812;SDS011;19162;48.254;11.454;2023-12-29T15:43:21;1.40;;;1.30;;
32812;SDS011;19162;48.254;11.454;2023-12-29T15:46:24;1.80;;;1.67;;
32812;SDS011;19162;48.254;11.454;2023-12-29T15:49:24;1.97;;;1.50;;
32812;SDS011;19162;48.254;11.454;2023-12-29T15:52:24;1.67;;;1.58;;
32812;SDS011;19162;48.254;11.454;2023-12-29T15:55:26;1.60;;;1.40;;
32812;SDS011;19162;48.254;11.454;2023-12-29T15:58:26;1.77;;;1.30;;
32812;SDS011;19162;48.254;11.454;2023-12-29T16:01:26;1.27;;;1.10;;
32812;SDS011;19162;48.254;11.454;2023-12-29T16:04:27;1.15;;;1.05;;
32812;SDS011;19162;48.254;11.454;2023-12-29T16:07:28;3.00;;;1.10;;
32812;SDS011;19162;48.254;11.454;2023-12-29T16:10:28;3.05;;;2.72;;
32812;SDS011;19162;48.254;11.454;2023-12-29T16:13:28;4.80;;;3.10;;
32812;SDS011;19162;48.254;11.454;2023-12-29T16:16:28;3.47;;;3.17;;
32812;SDS011;19162;48.254;11.454;2023-12-29T16:19:31;2.63;;;2.42;;
32812;SDS011;19162;48.254;11.454;2023-12-29T16:22:31;2.47;;;2.28;;
32812;SDS011;19162;48.254;11.454;2023-12-29T16:25:31;1.85;;;1.70;;
32812;SDS011;19162;48.254;11.454;2023-12-29T16:28:32;3.00;;;2.50;;
32812;SDS011;19162;48.254;11.454;2023-12-29T16:31:32;3.67;;;3.40;;
32812;SDS011;19162;48.254;11.454;2023-12-29T16:34:33;2.40;;;2.20;;
32812;SDS011;19162;48.254;11.454;2023-12-29T16:37:37;4.37;;;2.70;;
32812;SDS011;19162;48.254;11.454;2023-12-29T16:40:38;2.65;;;2.28;;
32812;SDS011;19162;48.254;11.454;2023-12-29T16:43:38;3.08;;;2.78;;
32812;SDS011;19162;48.254;11.454;2023-12-29T16:46:38;3.88;;;3.17;;
32812;SDS011;19162;48.254;11.454;2023-12-29T16:49:39;3.38;;;3.08;;
32812;SDS011;19162;48.254;11.454;2023-12-29T16:52:39;2.42;;;2.17;;
32812;SDS011;19162;48.254;11.454;2023-12-29T16:55:39;2.57;;;2.37;;
32812;SDS011;19162;48.254;11.454;2023-12-29T16:58:40;4.25;;;2.55;;
32812;SDS011;19162;48.254;11.454;2023-12-29T17:01:42;4.93;;;3.53;;
32812;SDS011;19162;48.254;11.454;2023-12-29T17:04:42;4.00;;;3.70;;
32812;SDS011;19162;48.254;11.454;2023-12-29T17:07:42;3.78;;;2.88;;
32812;SDS011;19162;48.254;11.454;2023-12-29T17:10:42;3.25;;;3.00;;
32812;SDS011;19162;48.254;11.454;2023-12-29T17:13:43;3.47;;;3.17;;
32812;SDS011;19162;48.254;11.454;2023-12-29T17:16:43;4.60;;;4.20;;
32812;SDS011;19162;48.254;11.454;2023-12-29T17:19:43;5.27;;;4.87;;
32812;SDS011;19162;48.254;11.454;2023-12-29T17:22:43;4.90;;;4.50;;
32812;SDS011;19162;48.254;11.454;2023-12-29T17:25:43;4.63;;;4.20;;
32812;SDS011;19162;48.254;11.454;2023-12-29T17:28:45;3.60;;;3.30;;
32812;SDS011;19162;48.254;11.454;2023-12-29T17:31:46;4.63;;;4.25;;
32812;SDS011;19162;48.254;11.454;2023-12-29T17:34:46;3.83;;;3.53;;
32812;SDS011;19162;48.254;11.454;2023-12-29T17:37:46;3.30;;;3.10;;
32812;SDS011;19162;48.254;11.454;2023-12-29T17:40:46;3.47;;;3.17;;
32812;SDS011;19162;48.254;11.454;2023-12-29T17:43:46;3.40;;;3.10;;
32812;SDS011;19162;48.254;11.454;2023-12-29T17:46:46;3.38;;;3.10;;
32812;SDS011;19162;48.254;11.454;2023-12-29T17:49:47;3.70;;;3.40;;
32812;SDS011;19162;48.254;11.454;2023-12-29T17:52:47;3.67;;;3.30;;
32812;SDS011;19162;48.254;11.454;2023-12-29T17:55:47;6.90;;;3.70;;
32812;SDS011;19162;48.254;11.454;2023-12-29T17:58:49;3.22;;;2.90;;
32812;SDS011;19162;48.254;11.454;2023-12-29T18:01:49;3.53;;;3.22;;
32812;SDS011;19162;48.254;11.454;2023-12-29T18:04:50;3.70;;;3.30;;
32812;SDS011;19162;48.254;11.454;2023-12-29T18:07:50;2.42;;;2.22;;